createdAt,value
2022-08-16T00:01:21.983Z,1.60
2022-08-16T00:03:51.277Z,1.67
2022-08-16T00:06:20.037Z,1.90
2022-08-16T00:08:50.482Z,1.90
2022-08-16T00:11:21.776Z,1.90
2022-08-16T00:13:54.021Z,1.65
2022-08-16T00:17:01.326Z,1.83
2022-08-16T00:19:09.713Z,1.90
2022-08-16T00:21:41.036Z,1.60
2022-08-16T00:24:12.314Z,1.90
2022-08-16T00:26:44.264Z,1.90
2022-08-16T00:29:16.470Z,1.92
2022-08-16T00:32:01.277Z,1.58
2022-08-16T00:34:44.920Z,1.90
2022-08-16T00:37:24.967Z,1.80
2022-08-16T00:40:33.702Z,1.90
2022-08-16T00:43:12.090Z,1.55
2022-08-16T00:45:59.968Z,1.92
2022-08-16T00:48:31.959Z,1.98
2022-08-16T00:51:16.132Z,1.92
2022-08-16T00:53:46.825Z,2.03
2022-08-16T00:56:56.263Z,1.70
2022-08-16T00:59:07.642Z,2.15
2022-08-16T01:01:38.793Z,1.90
2022-08-16T01:04:07.121Z,2.17
2022-08-16T01:07:01.152Z,1.90
2022-08-16T01:09:33.403Z,1.95
2022-08-16T01:12:08.510Z,2.40
2022-08-16T01:14:43.520Z,2.00
2022-08-16T01:17:14.964Z,1.98
2022-08-16T01:19:52.525Z,2.15
2022-08-16T01:22:57.601Z,2.05
2022-08-16T01:25:34.517Z,2.05
2022-08-16T01:28:07.757Z,2.13
2022-08-16T01:30:39.981Z,2.00
2022-08-16T01:33:19.091Z,1.73
2022-08-16T01:35:45.898Z,1.75
2022-08-16T01:38:25.710Z,2.13
2022-08-16T01:41:06.559Z,2.40
2022-08-16T01:43:34.936Z,2.20
2022-08-16T01:46:31.210Z,1.83
2022-08-16T01:48:58.687Z,2.20
2022-08-16T01:51:29.370Z,1.80
2022-08-16T01:53:56.834Z,2.10
2022-08-16T01:56:25.481Z,2.28
2022-08-16T01:58:57.171Z,2.08
2022-08-16T02:01:28.184Z,2.08
2022-08-16T02:03:58.461Z,1.90
2022-08-16T02:06:40.433Z,2.00
2022-08-16T02:09:14.770Z,2.25
2022-08-16T02:11:48.558Z,2.10
2022-08-16T02:14:27.396Z,2.10
2022-08-16T02:16:56.694Z,2.25
2022-08-16T02:19:58.549Z,2.25
2022-08-16T02:22:34.457Z,2.13
2022-08-16T02:25:12.046Z,2.15
2022-08-16T02:27:50.742Z,2.10
2022-08-16T02:30:36.696Z,2.00
2022-08-16T02:33:11.342Z,2.00
2022-08-16T02:35:54.093Z,2.17
2022-08-16T02:38:25.693Z,2.28
2022-08-16T02:40:54.387Z,2.38
2022-08-16T02:43:26.922Z,2.25
2022-08-16T02:45:55.114Z,2.57
2022-08-16T02:48:29.805Z,2.30
2022-08-16T02:51:10.194Z,2.50
2022-08-16T02:53:43.272Z,2.15
2022-08-16T02:56:12.031Z,3.00
2022-08-16T02:58:44.433Z,2.10
2022-08-16T03:01:24.134Z,2.38
2022-08-16T03:04:29.300Z,2.40
2022-08-16T03:06:56.585Z,2.40
2022-08-16T03:09:24.609Z,2.20
2022-08-16T03:11:51.104Z,2.22
2022-08-16T03:14:18.495Z,2.65
2022-08-16T03:16:59.482Z,2.60
2022-08-16T03:19:59.316Z,2.53
2022-08-16T03:22:28.844Z,2.25
2022-08-16T03:25:01.224Z,2.15
2022-08-16T03:27:32.272Z,2.67
2022-08-16T03:30:16.179Z,2.30
2022-08-16T03:32:44.126Z,2.67
2022-08-16T03:35:14.535Z,2.70
2022-08-16T03:38:02.909Z,2.80
2022-08-16T03:40:34.051Z,2.67
2022-08-16T03:43:20.834Z,2.50
2022-08-16T03:45:52.887Z,2.72
2022-08-16T03:48:36.766Z,2.60
2022-08-16T03:51:10.231Z,2.60
2022-08-16T03:53:39.908Z,2.50
2022-08-16T03:56:07.952Z,2.65
2022-08-16T03:58:39.400Z,2.38
2022-08-16T04:01:11.403Z,3.00
2022-08-16T04:03:39.758Z,2.60
2022-08-16T04:06:08.326Z,2.83
2022-08-16T04:08:36.057Z,3.08
2022-08-16T04:11:08.636Z,2.85
2022-08-16T04:14:00.154Z,3.15
2022-08-16T04:16:27.292Z,3.10
2022-08-16T04:19:01.362Z,2.90
2022-08-16T04:21:34.743Z,2.95
2022-08-16T04:24:02.748Z,2.90
2022-08-16T04:26:30.773Z,3.00
2022-08-16T04:29:16.351Z,2.53
2022-08-16T04:31:56.056Z,2.85
2022-08-16T04:34:31.112Z,2.90
2022-08-16T04:37:01.307Z,2.80
2022-08-16T04:39:45.847Z,2.92
2022-08-16T04:42:17.589Z,2.65
2022-08-16T04:44:53.892Z,3.13
2022-08-16T04:47:31.414Z,2.63
2022-08-16T04:50:00.779Z,2.90
2022-08-16T04:52:35.063Z,2.95
2022-08-16T04:55:18.025Z,3.10
2022-08-16T04:57:46.389Z,3.28
2022-08-16T05:00:32.181Z,4.10
2022-08-16T05:03:11.147Z,4.50
2022-08-16T05:05:45.282Z,3.05
2022-08-16T05:08:29.368Z,2.95
2022-08-16T05:11:10.748Z,3.00
2022-08-16T05:13:42.394Z,3.10
2022-08-16T05:16:19.881Z,2.92
2022-08-16T05:18:47.524Z,3.33
2022-08-16T05:21:14.059Z,3.30
2022-08-16T05:23:40.760Z,3.20
2022-08-16T05:26:19.650Z,2.75
2022-08-16T05:28:47.879Z,2.60
2022-08-16T05:31:22.575Z,2.90
2022-08-16T05:33:53.489Z,2.78
2022-08-16T05:36:21.738Z,2.38
2022-08-16T05:38:48.908Z,2.90
2022-08-16T05:41:16.988Z,2.40
2022-08-16T05:43:47.643Z,2.90
2022-08-16T05:46:29.442Z,2.50
2022-08-16T05:49:08.943Z,2.35
2022-08-16T05:51:40.069Z,2.40
2022-08-16T05:54:11.647Z,2.58
2022-08-16T05:56:45.930Z,2.65
2022-08-16T05:59:18.250Z,2.65
2022-08-16T06:01:45.265Z,2.67
2022-08-16T06:04:35.639Z,2.85
2022-08-16T06:07:02.563Z,2.22
2022-08-16T06:09:42.997Z,2.58
2022-08-16T06:12:27.491Z,2.13
2022-08-16T06:15:09.668Z,2.97
2022-08-16T06:17:43.834Z,2.65
2022-08-16T06:20:35.891Z,2.55
2022-08-16T06:23:16.734Z,2.47
2022-08-16T06:25:52.235Z,2.30
2022-08-16T06:28:34.974Z,2.40
2022-08-16T06:31:04.787Z,3.10
2022-08-16T06:33:41.277Z,3.03
2022-08-16T06:36:09.161Z,2.58
2022-08-16T06:38:38.667Z,2.83
2022-08-16T06:41:22.078Z,2.80
2022-08-16T06:43:51.175Z,2.83
2022-08-16T06:46:34.077Z,2.80
2022-08-16T06:49:02.233Z,2.58
2022-08-16T06:51:46.407Z,3.08
2022-08-16T06:54:16.765Z,2.88
2022-08-16T06:56:43.585Z,2.60
2022-08-16T06:59:10.851Z,3.10
2022-08-16T07:01:44.713Z,2.42
2022-08-16T07:04:32.100Z,2.70
2022-08-16T07:07:04.045Z,2.45
2022-08-16T07:09:33.184Z,2.50
2022-08-16T07:12:05.965Z,2.33
2022-08-16T07:14:33.417Z,2.53
2022-08-16T07:17:02.323Z,2.58
2022-08-16T07:19:33.620Z,2.63
2022-08-16T07:22:38.411Z,2.53
2022-08-16T07:25:11.766Z,2.60
2022-08-16T07:27:40.023Z,2.33
2022-08-16T07:30:38.394Z,2.40
2022-08-16T07:32:59.779Z,2.33
2022-08-16T07:35:26.803Z,2.58
2022-08-16T07:37:56.144Z,2.47
2022-08-16T07:40:49.080Z,2.47
2022-08-16T07:43:09.749Z,2.40
2022-08-16T07:45:36.568Z,2.50
2022-08-16T07:48:11.830Z,2.30
2022-08-16T07:50:56.077Z,2.50
2022-08-16T07:53:29.038Z,3.03
2022-08-16T07:55:56.952Z,2.40
2022-08-16T07:58:34.955Z,2.80
2022-08-16T08:01:10.498Z,2.50
2022-08-16T08:03:47.626Z,2.38
2022-08-16T08:06:21.386Z,2.00
2022-08-16T08:08:59.245Z,2.10
2022-08-16T08:11:28.246Z,2.08
2022-08-16T08:13:57.242Z,1.95
2022-08-16T08:16:30.306Z,1.98
2022-08-16T08:19:01.125Z,1.85
2022-08-16T08:21:58.952Z,2.35
2022-08-16T08:24:16.823Z,1.80
2022-08-16T08:26:43.653Z,1.80
2022-08-16T08:29:11.971Z,1.60
2022-08-16T08:31:42.327Z,1.88
2022-08-16T08:34:09.013Z,1.65
2022-08-16T08:36:40.131Z,1.50
2022-08-16T08:39:12.604Z,1.50
2022-08-16T08:41:42.209Z,1.52
2022-08-16T08:44:29.086Z,1.40
2022-08-16T08:47:09.371Z,1.30
2022-08-16T08:49:46.673Z,1.40
2022-08-16T08:52:35.486Z,1.33
2022-08-16T08:55:10.674Z,1.30
2022-08-16T08:57:42.077Z,1.30
2022-08-16T09:00:17.831Z,1.33
2022-08-16T09:02:52.073Z,1.30
2022-08-16T09:05:23.264Z,1.45
2022-08-16T09:08:05.869Z,1.50
2022-08-16T09:10:33.854Z,1.25
2022-08-16T09:13:08.602Z,1.20
2022-08-16T09:15:39.741Z,1.27
2022-08-16T09:18:26.235Z,1.50
2022-08-16T09:20:58.531Z,1.20
2022-08-16T09:23:31.398Z,1.30
2022-08-16T09:26:42.992Z,1.30
2022-08-16T09:29:14.882Z,1.05
2022-08-16T09:31:43.802Z,0.98
2022-08-16T09:34:19.194Z,1.10
2022-08-16T09:36:46.533Z,0.95
2022-08-16T09:39:18.309Z,1.15
2022-08-16T09:41:53.235Z,1.08
2022-08-16T09:45:12.880Z,1.20
2022-08-16T09:47:10.421Z,1.42
2022-08-16T09:49:37.579Z,1.58
2022-08-16T09:52:09.394Z,1.55
2022-08-16T09:54:37.917Z,1.20
2022-08-16T09:57:04.964Z,1.20
2022-08-16T09:59:38.628Z,1.02
2022-08-16T10:02:26.543Z,1.27
2022-08-16T10:04:55.945Z,1.10
2022-08-16T10:07:26.903Z,1.30
2022-08-16T10:10:11.912Z,1.10
2022-08-16T10:12:57.246Z,1.30
2022-08-16T10:15:25.399Z,1.00
2022-08-16T10:19:00.921Z,1.05
2022-08-16T10:20:55.972Z,1.20
2022-08-16T10:23:24.424Z,1.05
2022-08-16T10:27:20.844Z,1.00
2022-08-16T10:28:42.319Z,1.05
2022-08-16T10:31:16.730Z,1.13
2022-08-16T10:33:44.574Z,1.10
2022-08-16T10:36:37.807Z,0.90
2022-08-16T10:39:03.123Z,1.25
2022-08-16T10:41:33.635Z,1.00
2022-08-16T10:44:00.401Z,1.40
2022-08-16T10:46:39.878Z,1.10
2022-08-16T10:49:11.808Z,1.25
2022-08-16T10:52:03.174Z,1.17
2022-08-16T10:54:30.214Z,1.10
2022-08-16T10:57:04.692Z,0.90
2022-08-16T10:59:44.007Z,1.05
2022-08-16T11:02:59.478Z,0.88
2022-08-16T11:05:09.398Z,0.82
2022-08-16T11:07:43.561Z,1.00
2022-08-16T11:11:05.360Z,0.80
2022-08-16T11:15:55.549Z,0.95
2022-08-16T11:18:48.542Z,0.90
2022-08-16T11:21:10.487Z,0.80
2022-08-16T11:24:00.609Z,0.90
2022-08-16T11:26:27.651Z,0.90
2022-08-16T11:29:13.862Z,0.90
2022-08-16T11:31:45.999Z,0.82
2022-08-16T11:34:21.134Z,0.90
2022-08-16T11:36:59.358Z,1.00
2022-08-16T11:39:32.148Z,0.90
2022-08-16T11:42:01.045Z,1.10
2022-08-16T11:44:52.211Z,1.15
2022-08-16T11:47:18.230Z,0.80
2022-08-16T11:49:45.410Z,1.00
2022-08-16T11:52:12.259Z,0.70
2022-08-16T11:54:47.906Z,0.83
2022-08-16T11:57:23.910Z,0.82
2022-08-16T11:59:51.516Z,0.82
2022-08-16T12:02:32.359Z,0.98
2022-08-16T12:04:59.972Z,0.90
2022-08-16T12:07:28.416Z,1.00
2022-08-16T12:09:55.243Z,1.00
2022-08-16T12:12:23.932Z,0.80
2022-08-16T12:14:59.463Z,1.00
2022-08-16T12:17:31.507Z,1.08
2022-08-16T12:20:00.193Z,0.95
2022-08-16T12:22:27.149Z,0.98
2022-08-16T12:24:54.250Z,0.90
2022-08-16T12:27:24.208Z,1.02
2022-08-16T12:29:53.606Z,1.00
2022-08-16T12:32:26.824Z,1.13
2022-08-16T12:35:07.592Z,1.05
2022-08-16T12:37:35.376Z,0.80
2022-08-16T12:40:02.421Z,1.00
2022-08-16T12:42:35.169Z,0.80
2022-08-16T12:47:49.104Z,1.00
2022-08-16T12:50:16.464Z,1.10
2022-08-16T12:52:44.510Z,1.10
2022-08-16T12:55:20.726Z,0.98
2022-08-16T12:57:56.077Z,0.93
2022-08-16T13:00:33.590Z,0.90
2022-08-16T13:03:02.422Z,1.00
2022-08-16T13:08:03.234Z,1.10
2022-08-16T13:10:36.973Z,0.90
2022-08-16T13:13:05.889Z,1.00
2022-08-16T13:15:36.280Z,1.00
2022-08-16T13:18:27.104Z,1.00
2022-08-16T13:20:54.317Z,1.00
2022-08-16T13:23:22.991Z,1.23
2022-08-16T13:25:51.402Z,3.88
2022-08-16T13:28:21.786Z,1.13
2022-08-16T13:30:55.194Z,0.95
2022-08-16T13:33:30.003Z,1.08
2022-08-16T13:36:01.697Z,1.20
2022-08-16T13:38:32.677Z,1.92
2022-08-16T13:41:08.834Z,9.00
2022-08-16T13:43:39.904Z,1.30
2022-08-16T13:46:07.633Z,3.08
2022-08-16T13:48:42.598Z,4.90
2022-08-16T13:51:16.759Z,2.22
2022-08-16T13:53:54.921Z,2.38
2022-08-16T13:56:37.174Z,1.97
2022-08-16T13:59:19.668Z,1.50
2022-08-16T14:01:55.405Z,1.30
2022-08-16T14:04:26.644Z,1.25
2022-08-16T14:06:54.886Z,1.50
2022-08-16T14:09:21.627Z,1.25
2022-08-16T14:11:49.489Z,1.33
2022-08-16T14:14:28.369Z,1.30
2022-08-16T14:17:02.268Z,1.38
2022-08-16T14:19:29.872Z,1.30
2022-08-16T14:22:14.141Z,1.40
2022-08-16T14:24:45.277Z,1.80
2022-08-16T14:27:15.551Z,1.42
2022-08-16T14:29:42.408Z,1.20
2022-08-16T14:32:09.370Z,1.20
2022-08-16T14:34:40.543Z,1.10
2022-08-16T14:37:07.728Z,1.10
2022-08-16T14:39:35.228Z,1.20
2022-08-16T14:42:15.397Z,1.30
2022-08-16T14:44:44.852Z,1.40
2022-08-16T14:47:12.111Z,1.20
2022-08-16T14:49:41.563Z,1.10
2022-08-16T14:52:13.214Z,1.20
2022-08-16T14:54:43.379Z,1.40
2022-08-16T14:57:14.919Z,1.20
2022-08-16T14:59:46.010Z,1.30
2022-08-16T15:02:33.939Z,1.50
2022-08-16T15:05:01.483Z,1.30
2022-08-16T15:07:35.219Z,1.17
2022-08-16T15:10:03.511Z,1.20
2022-08-16T15:12:33.502Z,1.25
2022-08-16T15:15:04.337Z,1.33
2022-08-16T15:17:41.750Z,1.00
2022-08-16T15:20:20.968Z,1.27
2022-08-16T15:22:50.429Z,1.50
2022-08-16T15:25:29.322Z,1.52
2022-08-16T15:27:56.950Z,1.50
2022-08-16T15:30:58.450Z,1.30
2022-08-16T15:33:25.479Z,1.25
2022-08-16T15:35:55.178Z,1.30
2022-08-16T15:38:57.919Z,1.20
2022-08-16T15:41:13.377Z,1.40
2022-08-16T15:43:42.682Z,1.23
2022-08-16T15:46:35.219Z,1.35
2022-08-16T15:49:13.550Z,1.40
2022-08-16T15:51:43.568Z,1.50
2022-08-16T15:54:21.150Z,1.42
2022-08-16T15:57:02.689Z,1.60
2022-08-16T15:59:48.059Z,1.30
2022-08-16T16:02:27.202Z,1.35
2022-08-16T16:04:54.860Z,1.65
2022-08-16T16:07:22.406Z,1.70
2022-08-16T16:09:49.023Z,1.23
2022-08-16T16:12:50.268Z,1.48
2022-08-16T16:15:06.481Z,1.60
2022-08-16T16:17:34.259Z,1.40
2022-08-16T16:20:04.689Z,1.50
2022-08-16T16:22:33.776Z,1.30
2022-08-16T16:25:00.823Z,1.30
2022-08-16T16:27:27.500Z,1.48
2022-08-16T16:29:57.974Z,1.67
2022-08-16T16:32:34.185Z,1.73
2022-08-16T16:35:02.204Z,1.40
2022-08-16T16:37:31.146Z,1.50
2022-08-16T16:40:01.118Z,1.73
2022-08-16T16:42:31.374Z,1.70
2022-08-16T16:45:01.566Z,1.50
2022-08-16T16:47:29.808Z,1.50
2022-08-16T16:50:16.052Z,1.80
2022-08-16T16:52:45.082Z,1.80
2022-08-16T16:55:14.725Z,1.65
2022-08-16T16:58:03.254Z,1.70
2022-08-16T17:00:38.610Z,1.77
2022-08-16T17:03:17.056Z,1.83
2022-08-16T17:06:00.345Z,1.92
2022-08-16T17:08:34.578Z,2.88
2022-08-16T17:11:02.365Z,4.97
2022-08-16T17:13:30.698Z,5.13
2022-08-16T17:15:57.277Z,3.03
2022-08-16T17:19:17.971Z,2.90
2022-08-16T17:21:11.314Z,3.20
2022-08-16T17:23:58.897Z,2.50
2022-08-16T17:26:30.276Z,2.42
2022-08-16T17:29:02.809Z,1.80
2022-08-16T17:31:40.873Z,1.65
2022-08-16T17:37:08.009Z,2.00
2022-08-16T17:39:27.207Z,1.60
2022-08-16T17:39:58.068Z,1.90
2022-08-16T17:42:22.402Z,1.65
2022-08-16T17:44:51.981Z,1.85
2022-08-16T17:47:18.544Z,1.50
2022-08-16T17:49:45.174Z,1.50
2022-08-16T17:52:12.743Z,1.80
2022-08-16T17:54:39.355Z,1.67
2022-08-16T17:57:06.603Z,1.73
2022-08-16T17:59:36.971Z,1.88
2022-08-16T18:02:42.394Z,1.65
2022-08-16T18:05:02.281Z,1.95
2022-08-16T18:07:28.812Z,2.65
2022-08-16T18:09:55.340Z,2.60
2022-08-16T18:12:50.686Z,1.90
2022-08-16T18:15:18.188Z,1.90
2022-08-16T18:17:44.918Z,2.20
2022-08-16T18:20:33.519Z,1.98
2022-08-16T18:23:14.908Z,2.25
2022-08-16T18:25:47.288Z,2.20
2022-08-16T18:28:16.822Z,1.88
2022-08-16T18:30:51.027Z,2.30
2022-08-16T18:33:20.101Z,2.15
2022-08-16T18:35:46.786Z,2.30
2022-08-16T18:38:13.425Z,1.88
2022-08-16T18:40:40.948Z,1.98
2022-08-16T18:43:14.795Z,2.10
2022-08-16T18:45:45.750Z,1.90
2022-08-16T18:48:13.381Z,1.98
2022-08-16T18:50:59.325Z,2.20
2022-08-16T18:53:29.035Z,2.40
2022-08-16T18:55:58.605Z,2.30
2022-08-16T18:58:29.762Z,2.30
2022-08-16T19:00:57.612Z,2.60
2022-08-16T19:03:27.723Z,2.08
2022-08-16T19:05:58.902Z,2.10
2022-08-16T19:08:25.768Z,2.35
2022-08-16T19:10:52.970Z,2.10
2022-08-16T19:13:28.577Z,2.15
2022-08-16T19:16:00.345Z,2.47
2022-08-16T19:18:28.160Z,2.33
2022-08-16T19:21:03.493Z,2.50
2022-08-16T19:23:35.855Z,2.15
2022-08-16T19:28:51.824Z,2.33
2022-08-16T19:31:34.230Z,2.35
2022-08-16T19:34:04.406Z,2.20
2022-08-16T19:36:36.883Z,2.20
2022-08-16T19:39:13.959Z,2.15
2022-08-16T19:41:53.453Z,2.17
2022-08-16T19:44:24.258Z,2.20
2022-08-16T19:46:51.167Z,2.35
2022-08-16T19:49:17.983Z,2.20
2022-08-16T19:51:45.781Z,2.15
2022-08-16T19:54:12.462Z,2.42
2022-08-16T19:56:39.005Z,2.75
2022-08-16T19:59:22.281Z,2.38
2022-08-16T20:01:52.922Z,2.30
2022-08-16T20:04:23.228Z,2.33
2022-08-16T20:06:51.005Z,2.40
2022-08-16T20:09:23.751Z,2.50
2022-08-16T20:11:52.717Z,2.50
2022-08-16T20:14:25.234Z,2.50
2022-08-16T20:16:54.341Z,2.63
2022-08-16T20:19:21.085Z,2.42
2022-08-16T20:21:47.644Z,2.53
2022-08-16T20:24:32.829Z,2.30
2022-08-16T20:27:01.089Z,2.90
2022-08-16T20:29:28.867Z,3.22
2022-08-16T20:31:55.966Z,2.55
2022-08-16T20:34:22.619Z,2.60
2022-08-16T20:36:49.148Z,2.53
2022-08-16T20:39:18.057Z,2.50
2022-08-16T20:41:44.659Z,2.80
2022-08-16T20:44:14.599Z,2.67
2022-08-16T20:46:43.431Z,2.72
2022-08-16T20:49:10.332Z,2.97
2022-08-16T20:51:47.063Z,3.40
2022-08-16T20:54:18.858Z,3.72
2022-08-16T20:56:47.659Z,3.20
2022-08-16T20:59:14.599Z,3.72
2022-08-16T21:01:46.861Z,3.03
2022-08-16T21:04:19.329Z,3.47
2022-08-16T21:06:53.684Z,2.85
2022-08-16T21:09:32.523Z,3.28
2022-08-16T21:12:04.701Z,3.40
2022-08-16T21:17:08.286Z,3.17
2022-08-16T21:19:35.461Z,3.50
2022-08-16T21:22:17.254Z,3.30
2022-08-16T21:24:46.635Z,3.63
2022-08-16T21:27:14.709Z,3.28
2022-08-16T21:29:46.899Z,3.55
2022-08-16T21:32:18.129Z,3.38
2022-08-16T21:34:44.929Z,3.60
2022-08-16T21:37:12.190Z,3.30
2022-08-16T21:39:42.653Z,3.40
2022-08-16T21:42:11.859Z,3.25
2022-08-16T21:44:39.114Z,3.10
2022-08-16T21:47:08.779Z,3.08
2022-08-16T21:49:36.826Z,3.10
2022-08-16T21:52:04.411Z,3.00
2022-08-16T21:54:33.697Z,3.17
2022-08-16T21:57:00.317Z,3.20
2022-08-16T21:59:26.849Z,2.83
2022-08-16T22:01:53.456Z,3.13
2022-08-16T22:04:38.374Z,2.80
2022-08-16T22:07:05.430Z,2.58
2022-08-16T22:09:32.081Z,3.05
2022-08-16T22:11:58.571Z,3.08
2022-08-16T22:14:25.171Z,2.92
2022-08-16T22:16:51.720Z,2.97
2022-08-16T22:19:18.369Z,2.83
2022-08-16T22:21:45.038Z,3.30
2022-08-16T22:24:11.578Z,3.20
2022-08-16T22:26:42.487Z,2.90
2022-08-16T22:29:12.520Z,3.28
2022-08-16T22:31:40.775Z,3.05
2022-08-16T22:34:08.882Z,3.35
2022-08-16T22:36:36.173Z,3.03
2022-08-16T22:39:07.240Z,3.35
2022-08-16T22:41:34.549Z,3.22
2022-08-16T22:44:02.659Z,3.28
2022-08-16T22:46:30.395Z,3.10
2022-08-16T22:48:57.651Z,3.58
2022-08-16T22:51:26.052Z,3.45
2022-08-16T22:53:52.782Z,3.42
2022-08-16T22:56:19.841Z,3.40
2022-08-16T22:58:47.047Z,3.38
2022-08-16T23:01:15.111Z,3.50
2022-08-16T23:03:42.183Z,3.50
2022-08-16T23:06:12.345Z,3.22
2022-08-16T23:08:43.651Z,3.30
2022-08-16T23:11:14.373Z,3.70
2022-08-16T23:13:50.705Z,3.55
2022-08-16T23:16:32.571Z,3.28
2022-08-16T23:19:05.149Z,3.50
2022-08-16T23:21:34.959Z,3.28
2022-08-16T23:24:04.351Z,3.30
2022-08-16T23:26:44.590Z,3.50
2022-08-16T23:29:21.937Z,3.50
2022-08-16T23:31:53.929Z,3.13
2022-08-16T23:34:21.631Z,3.40
2022-08-16T23:36:48.282Z,3.40
2022-08-16T23:39:14.866Z,3.25
2022-08-16T23:41:41.414Z,3.58
2022-08-16T23:44:56.519Z,3.55
2022-08-16T23:46:55.394Z,3.58
2022-08-16T23:49:58.644Z,3.38
2022-08-16T23:52:10.595Z,3.55
2022-08-16T23:54:37.172Z,3.67
2022-08-16T23:57:04.453Z,3.30
2022-08-16T23:59:35.898Z,3.40
